Brutus, MI (49716)

11:44 AM EST on February 24, 2017 (GMT -0500)
Northwest Burt Lake | | Change Station
Active Advisory: Winter Weather Advisory

Elev 626 ft 45.51 °N, 84.70 °W | Updated 11 minutes ago

Snow
Snow
32.6 °F
Feels Like 22 °F
N
16.0
Wind Variable Wind from ENE
Gusts 17.0 mph

Today
High -- | Low -- °F
--% Chance of Precip.
Yesterday
High -- | Low -- °F
Precip. -- in
Pressure 29.74 in
Visibility 0.5 miles
Clouds Few 500 ft
Overcast 1100 ft
Windchill 22 °F
Dew Point 31 °F
Humidity 95%
Rainfall 0.00 in
Snow Depth Not available.
7:25 AM 6:19 PM
Waning Crescent, 4% visible
SPECI KPLN 241626Z AUTO 05013KT 1/2SM -SN FG FEW005 OVC011 00/M02 A2974 RMK AO2 P0003 T00001022
Pressure 29.74 in
Visibility 0.5 miles
Clouds Few 500 ft
Overcast 1100 ft
Windchill 22 °F
Dew Point 31 °F
Humidity 95%
Rainfall 0.00 in
Snow Depth Not available.
7:25 AM 6:19 PM
Waning Crescent, 4% visible
SPECI KPLN 241626Z AUTO 05013KT 1/2SM -SN FG FEW005 OVC011 00/M02 A2974 RMK AO2 P0003 T00001022

Get Your Daily Forecast Email!

Thanks for signing up!

Be on the lookout for a verification email in your inbox.

You'll start receiving the daily forecast at 8 AM.

×

10-Day Weather Forecast

Almanac

Astronomy

Feb. 24, 2017 Rise Set
Actual Time
Civil Twilight
Nautical Twilight
Astronomical Twilight
Moon
Length of Visible Light
Length of Day
Tomorrow will be .
, % of the Moon is Illuminated

Today's Extremes

State Highs State Lows

Community

WunderPhotos

Upload Photos

1,962,540 photos uploaded!

WunderBlog® & News

Nearby

Air Quality

  Air Quality AQ Index Pollutant
Not available.

Snow Depth

Station Depth Elevation

Earthquake Activity

City Distance Mag. Time & Date
Minimum magnitude displayed is 2.5.

Coastal Water Temperatures

Place Temperature

Stations

Nearby Weather Stations

Station Location Temp. Windchill Dew Point Humidity Wind Precip. Elev Updated Type
                   

Watches & Warnings

Winter Weather Advisory
Issued: 3:22 AM EST Feb. 24, 2017 – National Weather Service

... Winter Weather Advisory remains in effect until 1 am EST
Saturday...

* snow will transition to a wintry mix of snow... sleet and
freezing rain later this morning.

* The heaviest snowfall rates will occur through noon today... and
the greatest amount of ice accumulation will occur between 7 PM
Friday and 1 am Saturday.

* Snow accumulations of 2 to 5 inches and ice accumulations of
one to two tenths of an inch are expected.

* Look for reduced visibilities at times.

* Power outages and tree damage are likely due to the ice.
Travel will be dangerous.

Precautionary/preparedness actions...

A Winter Weather Advisory means that periods of snow... sleet or
freezing rain will cause travel difficulties. Be prepared for
slippery roads and limited visibilities... and use caution while
driving. For the latest Road conditions... go to the mdot website
at Michigan.Gov.